If you wish to contribute or participate in the discussions about articles you are invited to join SKYbrary as a registered user

 Actions

Caen-Carpiquet Airport

From SKYbrary Wiki

LFRK
Airport
ICAO: LFRK – IATA: CFR
Summary
Name Caen-Carpiquet Airport
Region Europe
Territory France FR.gif
Location , Basse-Normandie
Serving Caen
Elevation 78.029 m
256 ft
256 ft78.029 m
Type medium airport
Coordinates 49° 10' 24.00" N, 0° 27' 0.00" W
Runways
Designator Length Width Surface ROPS
6/24 1180 m3,871.391 ft
30 m98.425 ft
ASP /
13/31 1900 m6,233.596 ft
45 m147.638 ft
ASP /


METAR
Observation LFRK 231830Z AUTO 03004KT CAVOK 15/09 Q1017 NOSIG
Station Caen
Date/Time 23 May 2019 18:30:00
Wind direction 30°
Wind speed 04 kts
Lowest cloud amount clouds and visibility OK
Temperature 15°C
Dew point 9°C
Humidity 67%
QNH 1017 hPa
Weather condition n/a